General Juan N Alvarez International Airport
MMAA : now visible

Airfield :











YOU CAN JOIN US ON...

 
LOGIN :

Register | Disclaimer

   EN    FR    IT 

 









Legend :    VFR   Marginal VFR   IFR   Intensive IFR   Very Intensive IFR
Visi :
Ceiling :
>= 8 km
>= 3000ft
5 to 8 km
1000 to 3000 ft
1500m to 5 km
500 to 1000 ft
800 to 1500m
200 to 500 ft
< 800m
< 200 ft
Symbols :   Thunderstorms  Fog  Heavy snow  Heavy precipitations  Wind > 20 kt







- Airport Elevation : 16 ft
- IATA code : ACA


MMAA - General Juan N Alvarez International

CURRENT METAR :
  • 210343Z 29008KT 6SM SCT300 29/26 A2987 RMK 8/002 HZY

EXPIRED METARs :
  • 210250Z 27009KT 6SM SCT300 29/26 A2983 RMK SLP090 52017 903 8/002 HZY
  • 210148Z 27004KT 6SM FEW015 SCT090 SCT300 29/25 A2982 RMK 8/132 HZY DSNT CB NE

TAF TAF MMAA
Valid from the 21 at 00:00 until the 22 at 06:00 UTC


202246Z 2100/2206 26010KT P6SM SCT015 BKN300 TX31/2119Z TN26/2112Z
TEMPO 2100/2104 SCT020CB VC TS
FM210400 34005KT P6SM SCT015
FM211800 24010KT P6SM SCT015 BKN090
TEMPO 2122/2202 5SM TSRA BKN015CB
FM220200 30005KT 6SM -TSRA BKN015CB BKN090
No reported NOTAMs for that airfield.



MET'MAP, your aeronautical weather chart ! - Copyright ORBIFLY December 2007 - Disclaimer

ORBIFLY MET'MAP TEAM :

Programming & Development : Alexandra Zaïnal
Concept & Development : Baudouin d'Aumeries
Co-Development & Prog : Marc-Olivier Méhu
Technical & hardware support : Manuel Goepfert

Contact : metmap@orbifly.com




SOURCES & CREDITS :

   NOAA       Earth
Advisory